Portavogie, United Kingdom
Current Conditions -  °F | °C
As of 9:50 PM on Wednesday 17 Dec 2014 (Local Time) from EGAC Reporting Station
Broken Clouds Broken Clouds  
Wind Chill: 52°   Ceiling: 1100
Heat Index: 52°   Visibility: 6mi
Dew Point: 50°   Wind: 13mph
Humidity: 94%   Direction: 210°SSW
Pressure: 29.56"   Gusts: NA
Location:  54.46°N, 5.44°W
Report Text: EGAC 172150Z 21011KT 9999 FEW008 BKN011 11/10 Q1001
Loading
Personal Weather Stations






























Interactive Weather Map New forecast layout! Learn more

10-Day Weather Forecast

Advertisements
Track Severe Weather on mobile